Time;durP1;ratioP1;P1;durP2;ratioP2;P2;SDS_P1;SDS_P2;PMS_P1;PMS_P2;Temp;Humidity;BMP_temperature;BMP_pressure;BME280_temperature;BME280_humidity;BME280_pressure;Samples;Min_cycle;Max_cycle;Signal;HPM_P1;HPM_P2
2021/12/17 00:03:06;;;;;;;39.33;15.05;;;6.10;99.90;;;;;;4661894;28;10000590;-73
2021/12/17 00:05:08;;;;;;;43.42;13.45;;;6.20;99.90;;;;;;5008332;28;20407;-72
2021/12/17 00:07:36;;;;;;;40.42;12.85;;;6.10;99.90;;;;;;5011993;28;20029;-72
2021/12/17 00:10:06;;;;;;;54.83;14.82;;;6.10;99.90;;;;;;5009552;28;20033;-76
2021/12/17 00:12:31;;;;;;;46.50;13.75;;;6.00;99.90;;;;;;5008545;28;20508;-73
2021/12/17 00:14:58;;;;;;;46.30;14.07;;;6.00;99.90;;;;;;5011065;28;20030;-73
2021/12/17 00:17:29;;;;;;;44.95;14.25;;;6.00;99.90;;;;;;5010917;28;20026;-71
2021/12/17 00:20:37;;;;;;;39.95;13.40;;;6.10;99.90;;;;;;5011137;28;20034;-72
2021/12/17 00:53:03;;;;;;;44.58;11.30;;;6.00;99.90;;;;;;4995151;28;20394;-73
2021/12/17 00:55:28;;;;;;;33.83;11.35;;;6.10;99.90;;;;;;5000796;28;20026;-72
2021/12/17 00:57:54;;;;;;;53.75;12.82;;;6.00;99.90;;;;;;5014108;28;20037;-72
2021/12/17 01:00:22;;;;;;;47.55;12.85;;;6.00;99.90;;;;;;5014082;28;20122;-72
2021/12/17 01:02:49;;;;;;;36.05;11.02;;;6.10;99.90;;;;;;5007019;28;20030;-72
2021/12/17 01:05:19;;;;;;;39.67;12.35;;;6.10;99.90;;;;;;5013851;28;20045;-72
2021/12/17 01:07:48;;;;;;;46.50;12.88;;;6.00;99.90;;;;;;5014051;28;20030;-72
2021/12/17 01:10:24;;;;;;;53.15;12.75;;;6.00;99.90;;;;;;5013701;28;20073;-73
2021/12/17 01:12:50;;;;;;;34.10;11.25;;;6.00;99.90;;;;;;5013416;28;20032;-72
2021/12/17 01:15:19;;;;;;;35.50;12.60;;;6.00;99.90;;;;;;5002200;28;20113;-72
2021/12/17 01:17:52;;;;;;;47.65;12.50;;;6.00;99.90;;;;;;4993233;28;20389;-72
2021/12/17 01:20:34;;;;;;;45.22;11.50;;;5.90;99.90;;;;;;4998710;28;20018;-75
2021/12/17 01:23:19;;;;;;;44.13;12.40;;;5.90;99.90;;;;;;5011391;28;20033;-72
2021/12/17 01:36:22;;;;;;;35.65;10.82;;;6.00;99.90;;;;;;5013944;28;20041;-72
2021/12/17 01:44:09;;;;;;;41.20;10.73;;;6.00;99.90;;;;;;5013439;28;20104;-72
2021/12/17 01:46:37;;;;;;;40.28;11.93;;;5.90;99.90;;;;;;5012643;28;20472;-72
2021/12/17 01:59:54;;;;;;;42.78;10.70;;;6.00;99.90;;;;;;5032959;28;20376;-75
2021/12/17 02:02:20;;;;;;;39.65;11.05;;;6.00;99.90;;;;;;5032843;28;20022;-75
2021/12/17 02:04:46;;;;;;;43.33;11.18;;;6.00;99.90;;;;;;5032792;28;20514;-75
2021/12/17 02:07:12;;;;;;;37.78;9.38;;;6.10;99.90;;;;;;5033182;28;20034;-76
2021/12/17 02:21:19;;;;;;;30.73;10.73;;;6.00;99.90;;;;;;5035327;28;20837;-74
2021/12/17 02:29:11;;;;;;;44.78;10.25;;;6.00;99.90;;;;;;5032442;28;20395;-74
2021/12/17 02:31:36;;;;;;;49.33;10.73;;;5.90;99.90;;;;;;5031939;28;20036;-74
2021/12/17 02:34:53;;;;;;;43.95;10.95;;;6.00;99.90;;;;;;5032268;28;20029;-75
2021/12/17 02:36:57;;;;;;;50.63;10.88;;;;;;;;;;5029684;28;20127;-74
2021/12/17 02:47:17;;;;;;;37.38;9.95;;;6.00;99.90;;;;;;5032361;28;20439;-74
2021/12/17 02:49:44;;;;;;;38.28;9.25;;;5.90;99.90;;;;;;5032032;28;20033;-75
2021/12/17 02:52:12;;;;;;;35.17;9.55;;;5.90;99.90;;;;;;5030999;28;20033;-75
2021/12/17 02:54:38;;;;;;;28.20;9.90;;;6.00;99.90;;;;;;5031855;28;20048;-74
2021/12/17 02:57:05;;;;;;;32.88;9.70;;;6.00;99.90;;;;;;5031884;28;20029;-76
2021/12/17 02:59:33;;;;;;;46.42;9.88;;;6.00;99.90;;;;;;5031723;28;20037;-75
2021/12/17 03:01:59;;;;;;;55.75;10.27;;;5.90;99.90;;;;;;5031473;28;20372;-75
2021/12/17 03:04:27;;;;;;;51.72;10.63;;;5.90;99.90;;;;;;5031855;28;20048;-75
2021/12/17 03:06:54;;;;;;;27.38;9.15;;;5.90;99.90;;;;;;5032015;28;20055;-75
2021/12/17 03:09:28;;;;;;;40.72;10.90;;;5.90;99.90;;;;;;5031728;28;20555;-75
2021/12/17 03:11:54;;;;;;;36.47;9.30;;;6.00;99.90;;;;;;5031495;28;20467;-75
2021/12/17 03:14:20;;;;;;;48.38;10.48;;;5.90;99.90;;;;;;5031850;28;20029;-75
2021/12/17 03:16:57;;;;;;;36.60;10.40;;;5.90;99.90;;;;;;5031854;28;20060;-75
2021/12/17 03:23:25;;;;;;;31.60;10.65;;;5.90;99.90;;;;;;5031738;28;20487;-74
2021/12/17 03:24:52;;;;;;;34.28;10.57;;;6.00;99.90;;;;;;5031249;28;20037;-74
2021/12/17 03:27:18;;;;;;;49.33;11.55;;;6.00;99.90;;;;;;5031741;28;20030;-75
2021/12/17 03:29:44;;;;;;;47.60;11.75;;;6.00;99.90;;;;;;5031732;28;20483;-74
2021/12/17 03:32:09;;;;;;;40.15;12.15;;;6.00;99.90;;;;;;5031170;28;20467;-75
2021/12/17 03:34:35;;;;;;;36.35;10.13;;;5.90;99.90;;;;;;5031575;28;20021;-75
2021/12/17 03:37:00;;;;;;;38.88;10.40;;;5.90;99.90;;;;;;5031441;28;20056;-75
2021/12/17 03:39:27;;;;;;;34.47;10.18;;;5.90;99.90;;;;;;5031378;28;20539;-74
2021/12/17 03:41:56;;;;;;;40.90;10.18;;;6.90;99.90;;;;;;5030808;28;20075;-75
2021/12/17 03:44:21;;;;;;;48.95;10.40;;;6.40;99.90;;;;;;5031391;28;20033;-74
2021/12/17 03:46:49;;;;;;;41.30;9.73;;;5.90;99.90;;;;;;5031315;28;20034;-75
2021/12/17 03:49:15;;;;;;;35.92;8.45;;;5.80;99.90;;;;;;5031278;28;20087;-74
2021/12/17 03:52:04;;;;;;;36.22;9.02;;;5.90;99.90;;;;;;5030670;28;20025;-74
2021/12/17 03:54:35;;;;;;;44.50;10.52;;;6.60;99.90;;;;;;5031134;28;20105;-75
2021/12/17 03:57:04;;;;;;;32.28;9.80;;;5.90;99.90;;;;;;5034025;28;20025;-74
2021/12/17 03:59:30;;;;;;;34.45;9.73;;;5.90;99.90;;;;;;5034972;28;20049;-74
2021/12/17 04:01:55;;;;;;;44.50;10.43;;;5.90;99.90;;;;;;5034906;28;20103;-75
2021/12/17 04:04:21;;;;;;;48.50;11.00;;;5.90;99.90;;;;;;5034896;28;20479;-74
2021/12/17 04:06:47;;;;;;;29.13;10.23;;;5.90;99.90;;;;;;5035109;28;20029;-75
2021/12/17 04:09:13;;;;;;;49.78;10.20;;;5.90;99.90;;;;;;5034828;28;20021;-75
2021/12/17 04:11:38;;;;;;;41.63;9.57;;;5.90;99.90;;;;;;5034658;28;20044;-75
2021/12/17 04:14:04;;;;;;;52.03;11.10;;;5.90;99.90;;;;;;5034964;28;20635;-74
2021/12/17 04:16:32;;;;;;;51.38;10.73;;;6.00;99.90;;;;;;5034476;28;20372;-74
2021/12/17 04:18:59;;;;;;;43.38;9.73;;;6.00;99.90;;;;;;5034772;28;20025;-74
2021/12/17 04:21:25;;;;;;;30.92;10.15;;;5.90;99.90;;;;;;5034327;28;20519;-74
2021/12/17 04:23:53;;;;;;;29.40;10.30;;;6.00;99.90;;;;;;5034807;28;20080;-74
2021/12/17 04:26:20;;;;;;;28.52;9.13;;;6.00;99.90;;;;;;5034521;28;20487;-75
2021/12/17 04:28:49;;;;;;;34.65;10.85;;;6.00;99.90;;;;;;5034601;28;20029;-74
2021/12/17 04:31:16;;;;;;;32.75;9.23;;;6.00;99.90;;;;;;5034230;28;20017;-75
2021/12/17 04:33:43;;;;;;;44.65;9.75;;;6.00;99.90;;;;;;5034179;28;20022;-74
2021/12/17 04:36:11;;;;;;;35.85;9.40;;;6.00;99.90;;;;;;5034395;28;20032;-74
2021/12/17 04:38:37;;;;;;;46.00;10.30;;;6.10;99.90;;;;;;5016652;28;20036;-75
2021/12/17 04:42:08;;;;;;;34.17;9.20;;;6.10;99.90;;;;;;5016440;28;20022;-75
2021/12/17 04:59:49;;;;;;;32.40;9.27;;;6.00;99.90;;;;;;5034334;28;20029;-75
2021/12/17 05:02:16;;;;;;;36.35;9.13;;;6.00;99.90;;;;;;5033134;28;20028;-75
2021/12/17 05:04:43;;;;;;;39.65;10.32;;;6.00;99.90;;;;;;5029424;28;20025;-75
2021/12/17 05:07:12;;;;;;;39.22;8.35;;;6.00;99.90;;;;;;5043903;28;20029;-75
2021/12/17 05:09:47;;;;;;;32.25;8.02;;;6.10;99.90;;;;;;5012671;28;20025;-74
2021/12/17 05:20:43;;;;;;;47.10;10.70;;;6.00;99.90;;;;;;5033923;28;20036;-74
2021/12/17 05:23:08;;;;;;;31.35;8.10;;;6.00;99.90;;;;;;5033379;28;20723;-75
2021/12/17 05:25:34;;;;;;;27.58;8.85;;;6.00;99.90;;;;;;5015405;28;20033;-73
2021/12/17 05:28:02;;;;;;;26.55;8.00;;;5.90;99.90;;;;;;5033129;28;20487;-74
2021/12/17 05:30:28;;;;;;;33.25;11.18;;;5.90;99.90;;;;;;5032968;28;20026;-75
2021/12/17 05:32:55;;;;;;;38.20;9.23;;;5.90;99.90;;;;;;5033546;28;20078;-74
2021/12/17 05:35:21;;;;;;;24.73;9.07;;;5.80;99.90;;;;;;5033273;28;20028;-75
2021/12/17 05:37:46;;;;;;;36.15;11.35;;;5.90;99.90;;;;;;5033007;28;20022;-75
2021/12/17 05:40:12;;;;;;;30.15;8.98;;;5.80;99.90;;;;;;5032806;28;20399;-76
2021/12/17 05:42:40;;;;;;;41.28;9.75;;;5.70;99.90;;;;;;5032847;28;20025;-76
2021/12/17 05:45:22;;;;;;;36.35;9.65;;;5.80;99.90;;;;;;5032995;28;20446;-74
2021/12/17 05:47:48;;;;;;;32.35;9.02;;;5.80;99.90;;;;;;5033093;28;20037;-74
2021/12/17 05:50:15;;;;;;;36.97;9.30;;;5.80;99.90;;;;;;5015199;28;20110;-75
2021/12/17 05:52:41;;;;;;;26.17;8.35;;;5.80;99.90;;;;;;5032452;28;20164;-75
2021/12/17 05:55:07;;;;;;;32.70;9.68;;;5.80;99.90;;;;;;5033336;28;20438;-75
2021/12/17 05:57:32;;;;;;;46.88;11.02;;;5.80;99.90;;;;;;5032539;28;20108;-76
2021/12/17 05:59:58;;;;;;;44.33;9.95;;;5.70;99.90;;;;;;5029453;28;20104;-76
2021/12/17 06:02:23;;;;;;;31.90;10.90;;;5.70;99.90;;;;;;5025765;28;20384;-74
2021/12/17 06:04:49;;;;;;;37.15;10.05;;;5.70;99.90;;;;;;5011003;28;20467;-76
2021/12/17 06:07:24;;;;;;;36.42;11.77;;;5.70;99.90;;;;;;5029128;28;20502;-75
2021/12/17 06:09:51;;;;;;;26.98;9.65;;;5.70;99.90;;;;;;5028818;28;20052;-74
2021/12/17 06:12:17;;;;;;;46.72;10.30;;;5.70;99.90;;;;;;5026846;28;20072;-75
2021/12/17 06:14:43;;;;;;;35.17;11.07;;;5.80;99.90;;;;;;5010852;28;20487;-74
2021/12/17 06:17:08;;;;;;;30.63;9.10;;;5.70;99.90;;;;;;5028174;28;20032;-74
2021/12/17 06:19:34;;;;;;;44.55;10.63;;;5.70;99.90;;;;;;5027996;28;20036;-76
2021/12/17 06:21:59;;;;;;;24.20;9.73;;;5.70;99.90;;;;;;5029407;28;20060;-74
2021/12/17 06:24:25;;;;;;;47.97;10.95;;;5.70;99.90;;;;;;5030552;28;20706;-75
2021/12/17 06:26:51;;;;;;;36.03;9.60;;;5.70;99.90;;;;;;5032299;28;21033;-76
2021/12/17 06:29:16;;;;;;;49.03;10.48;;;5.80;99.90;;;;;;5028919;28;20037;-75
2021/12/17 06:31:42;;;;;;;49.25;11.23;;;5.70;99.90;;;;;;5027586;28;20028;-75
2021/12/17 06:34:08;;;;;;;41.55;9.15;;;6.10;99.90;;;;;;5028110;28;20145;-75
2021/12/17 06:36:33;;;;;;;36.83;10.50;;;5.70;99.90;;;;;;5026905;28;20274;-74
2021/12/17 06:38:59;;;;;;;32.47;9.65;;;5.80;99.90;;;;;;5028092;28;20029;-76
2021/12/17 06:41:24;;;;;;;35.03;8.48;;;7.70;99.90;;;;;;5008791;28;20026;-75
2021/12/17 06:43:50;;;;;;;29.25;7.72;;;5.70;99.90;;;;;;5027217;28;20032;-75
2021/12/17 06:46:45;;;;;;;29.35;8.63;;;;;;;;;;5023158;28;20072;-75
2021/12/17 06:50:01;;;;;;;40.88;9.77;;;5.70;99.90;;;;;;5027292;28;20117;-75
2021/12/17 06:55:01;;;;;;;43.93;9.53;;;5.70;99.90;;;;;;5028075;28;20487;-76
2021/12/17 07:10:55;;;;;;;32.47;9.73;;;5.70;99.90;;;;;;5025817;28;20044;-77
2021/12/17 07:22:02;;;;;;;30.77;7.68;;;5.70;99.90;;;;;;5027379;28;20036;-76
2021/12/17 07:32:40;;;;;;;34.50;8.55;;;5.70;99.90;;;;;;5028452;28;20036;-76
2021/12/17 07:39:58;;;;;;;32.70;8.18;;;5.80;99.90;;;;;;5029273;28;20040;-75
2021/12/17 07:42:25;;;;;;;38.92;10.38;;;5.80;99.90;;;;;;5028676;28;20390;-75
2021/12/17 07:44:50;;;;;;;25.60;8.52;;;5.90;99.90;;;;;;5029754;28;20406;-76
2021/12/17 07:47:16;;;;;;;27.45;6.68;;;5.90;99.90;;;;;;5029015;28;20034;-76
2021/12/17 07:49:41;;;;;;;36.13;6.97;;;5.90;99.90;;;;;;5029511;28;20553;-76
2021/12/17 07:52:07;;;;;;;30.85;7.53;;;4.30;99.90;;;;;;5009179;22;1033339;-71
2021/12/17 07:54:33;;;;;;;39.08;7.55;;;5.90;99.90;;;;;;5029413;28;20034;-71
2021/12/17 07:56:58;;;;;;;26.90;7.88;;;6.10;99.90;;;;;;5031097;28;20037;-71
2021/12/17 07:59:24;;;;;;;26.83;7.95;;;5.90;99.90;;;;;;5029495;28;20075;-70
2021/12/17 08:01:50;;;;;;;31.17;8.57;;;5.90;99.90;;;;;;5012061;28;20026;-73
2021/12/17 08:04:15;;;;;;;32.78;8.02;;;6.00;99.90;;;;;;5013641;28;20740;-69
2021/12/17 08:06:41;;;;;;;38.17;6.78;;;6.00;99.90;;;;;;5029517;28;20064;-72
2021/12/17 08:09:06;;;;;;;50.17;8.57;;;6.00;99.90;;;;;;5030347;28;20100;-70
2021/12/17 08:11:39;;;;;;;31.08;7.78;;;7.40;99.90;;;;;;5029882;28;20037;-72
2021/12/17 08:14:10;;;;;;;36.08;7.25;;;6.00;99.90;;;;;;5029765;28;20116;-72
2021/12/17 08:16:57;;;;;;;20.92;7.57;;;6.00;99.90;;;;;;5030112;28;20067;-73
2021/12/17 08:25:13;;;;;;;23.00;8.55;;;5.90;99.90;;;;;;5019347;28;20036;-71
2021/12/17 08:32:41;;;;;;;26.77;7.07;;;7.80;99.90;;;;;;5029333;28;20037;-71
2021/12/17 08:35:09;;;;;;;34.60;7.85;;;6.00;99.90;;;;;;5028904;28;20021;-72
2021/12/17 08:37:34;;;;;;;30.20;7.43;;;5.90;99.90;;;;;;5029839;28;20022;-71
2021/12/17 08:40:00;;;;;;;30.77;7.68;;;6.00;99.90;;;;;;5028517;28;20041;-72
2021/12/17 08:42:26;;;;;;;41.38;8.18;;;6.00;99.90;;;;;;5028491;28;20021;-71
2021/12/17 08:44:52;;;;;;;35.03;7.60;;;6.10;99.90;;;;;;5028761;28;20408;-72
2021/12/17 08:47:18;;;;;;;41.85;8.10;;;6.10;99.90;;;;;;5028562;28;20044;-71
2021/12/17 08:49:44;;;;;;;40.72;8.48;;;6.10;99.90;;;;;;5025785;28;20038;-72
2021/12/17 08:52:11;;;;;;;39.45;9.63;;;6.30;99.90;;;;;;5027833;28;20033;-71
2021/12/17 08:54:37;;;;;;;32.80;8.13;;;6.10;99.90;;;;;;5028957;28;20073;-69
2021/12/17 08:57:03;;;;;;;32.63;8.43;;;6.10;99.90;;;;;;5029485;28;20108;-72
2021/12/17 08:59:29;;;;;;;44.72;9.85;;;6.20;99.90;;;;;;5028550;28;20566;-75
2021/12/17 09:01:55;;;;;;;30.42;8.43;;;6.50;99.90;;;;;;5028152;28;20021;-73
2021/12/17 09:04:21;;;;;;;34.20;6.75;;;4.60;99.90;;;;;;5029640;28;20022;-71
2021/12/17 09:06:47;;;;;;;28.60;7.95;;;6.30;99.90;;;;;;5027683;28;20049;-72
2021/12/17 09:09:18;;;;;;;24.40;5.97;;;6.20;99.90;;;;;;5028483;28;20089;-74
2021/12/17 09:11:43;;;;;;;20.83;5.60;;;6.30;99.90;;;;;;5036190;28;20037;-71
2021/12/17 09:14:09;;;;;;;22.77;6.45;;;6.30;99.90;;;;;;5024749;28;20021;-73
2021/12/17 09:16:35;;;;;;;22.42;5.50;;;6.30;99.90;;;;;;4999826;28;20124;-74
2021/12/17 09:19:03;;;;;;;31.15;5.80;;;6.40;99.90;;;;;;5039106;28;20045;-72
2021/12/17 09:21:28;;;;;;;19.33;4.97;;;6.50;99.90;;;;;;5028203;28;20018;-73
2021/12/17 09:23:54;;;;;;;34.08;6.28;;;6.50;99.90;;;;;;5027957;28;20094;-73
2021/12/17 09:26:21;;;;;;;34.05;6.00;;;6.50;99.90;;;;;;5028540;28;20029;-72
2021/12/17 09:28:47;;;;;;;39.30;9.70;;;6.50;99.90;;;;;;5011692;28;20026;-70
2021/12/17 09:31:13;;;;;;;35.80;5.57;;;6.50;99.90;;;;;;5008838;28;20080;-72
2021/12/17 09:33:40;;;;;;;24.30;5.90;;;6.70;99.90;;;;;;5027766;28;20119;-72
2021/12/17 09:36:05;;;;;;;21.75;4.65;;;6.60;99.90;;;;;;5028052;28;20029;-72
2021/12/17 09:38:31;;;;;;;20.27;6.32;;;6.60;99.90;;;;;;5011355;28;20418;-73
2021/12/17 09:40:58;;;;;;;25.80;5.35;;;6.60;99.90;;;;;;5009342;28;20034;-72
2021/12/17 09:43:24;;;;;;;17.17;5.25;;;6.60;99.90;;;;;;5027761;28;20049;-73
2021/12/17 09:45:50;;;;;;;40.95;6.00;;;6.60;99.90;;;;;;5028556;28;20400;-72
2021/12/17 09:48:19;;;;;;;22.50;4.68;;;6.70;99.90;;;;;;5010151;28;20034;-72
2021/12/17 09:50:45;;;;;;;18.77;5.30;;;6.60;99.90;;;;;;5017751;28;20029;-72
2021/12/17 09:53:11;;;;;;;28.27;5.57;;;6.60;99.90;;;;;;5030987;28;20075;-72
2021/12/17 09:55:37;;;;;;;24.17;5.55;;;6.60;99.90;;;;;;5012027;28;20029;-71
2021/12/17 09:58:02;;;;;;;30.45;6.97;;;6.50;99.90;;;;;;5015788;28;20380;-72
2021/12/17 10:00:28;;;;;;;32.47;5.53;;;6.50;99.90;;;;;;5031588;28;20033;-72
2021/12/17 10:02:54;;;;;;;27.17;5.72;;;6.60;99.90;;;;;;5031849;28;20491;-72
2021/12/17 10:05:23;;;;;;;29.98;5.53;;;6.60;99.90;;;;;;5030659;28;20094;-71
2021/12/17 10:08:02;;;;;;;24.13;4.53;;;6.60;99.90;;;;;;5032092;28;20464;-71
2021/12/17 10:10:35;;;;;;;12.65;4.50;;;6.60;99.90;;;;;;5013331;28;20112;-70
2021/12/17 10:13:21;;;;;;;26.58;5.00;;;6.70;99.90;;;;;;5031577;28;20416;-72
2021/12/17 10:15:56;;;;;;;21.20;5.10;;;6.60;99.90;;;;;;5032219;28;20054;-71
2021/12/17 10:18:38;;;;;;;;;;;6.70;99.90;;;;;;5032611;28;20033;-70
2021/12/17 10:21:11;;;;;;;23.33;4.53;;;6.60;99.90;;;;;;5032254;28;20145;-69
2021/12/17 10:23:40;;;;;;;14.18;4.00;;;6.70;99.90;;;;;;5014362;28;20022;-72
2021/12/17 10:26:14;;;;;;;11.57;3.85;;;6.80;99.90;;;;;;5032236;28;20045;-72
2021/12/17 10:28:52;;;;;;;33.70;4.72;;;6.80;99.90;;;;;;5032532;28;20389;-72
2021/12/17 10:31:19;;;;;;;25.08;5.13;;;6.80;99.90;;;;;;5031834;28;20030;-72
2021/12/17 10:33:54;;;;;;;12.57;3.17;;;6.90;99.90;;;;;;5032107;28;20052;-71
2021/12/17 10:36:32;;;;;;;;;;;6.90;99.90;;;;;;5032656;28;20021;-72
2021/12/17 10:38:59;;;;;;;17.77;3.85;;;7.00;99.90;;;;;;5031913;28;19905;-71
2021/12/17 10:41:27;;;;;;;16.30;5.40;;;7.00;99.90;;;;;;5013945;28;20049;-71
2021/12/17 10:43:59;;;;;;;25.40;5.10;;;6.90;99.90;;;;;;5031772;28;20037;-71
2021/12/17 10:48:55;;;;;;;25.98;4.72;;;6.90;99.90;;;;;;5031775;28;20056;-70
2021/12/17 10:54:05;;;;;;;12.85;3.58;;;6.90;99.90;;;;;;5031502;28;20395;-74
2021/12/17 10:56:33;;;;;;;18.00;4.28;;;7.00;99.90;;;;;;5031923;28;20021;-72
2021/12/17 10:59:08;;;;;;;18.48;3.65;;;6.90;99.90;;;;;;5031712;28;20025;-71
2021/12/17 11:01:40;;;;;;;15.15;2.92;;;6.90;99.90;;;;;;5031318;28;20018;-72
2021/12/17 11:04:12;;;;;;;15.98;3.65;;;6.90;99.90;;;;;;5017227;28;20026;-72
2021/12/17 11:06:43;;;;;;;16.42;2.80;;;7.00;99.90;;;;;;5026923;28;20044;-72
2021/12/17 11:09:08;;;;;;;13.05;3.45;;;7.00;99.90;;;;;;5027755;28;20025;-73
2021/12/17 11:11:41;;;;;;;11.25;2.92;;;7.00;99.90;;;;;;5008631;28;20029;-72
2021/12/17 11:14:06;;;;;;;11.15;3.22;;;7.10;99.90;;;;;;5025969;28;20033;-73
2021/12/17 11:16:32;;;;;;;19.67;4.07;;;7.10;99.90;;;;;;5027535;28;20394;-74
2021/12/17 11:18:58;;;;;;;15.93;3.30;;;7.10;99.90;;;;;;5026829;28;20026;-72
2021/12/17 11:21:23;;;;;;;9.77;3.30;;;7.20;99.90;;;;;;5026553;28;20053;-75
2021/12/17 11:23:50;;;;;;;11.38;3.45;;;7.20;99.90;;;;;;5021666;28;20088;-74
2021/12/17 11:26:15;;;;;;;12.75;3.42;;;9.20;99.90;;;;;;5017800;28;20013;-74
2021/12/17 11:28:44;;;;;;;13.25;4.18;;;7.20;99.90;;;;;;5026278;28;20112;-76
2021/12/17 11:31:10;;;;;;;18.52;4.05;;;7.20;99.90;;;;;;5026599;28;20117;-75
2021/12/17 11:33:37;;;;;;;12.77;3.30;;;7.70;99.90;;;;;;5009007;28;20125;-75
2021/12/17 11:36:03;;;;;;;18.60;2.85;;;7.10;99.90;;;;;;5026501;28;20455;-75
2021/12/17 11:38:47;;;;;;;15.77;3.60;;;7.10;99.90;;;;;;5009048;28;20087;-73
2021/12/17 11:41:19;;;;;;;26.20;4.20;;;7.10;99.90;;;;;;5026108;28;20420;-74
2021/12/17 11:44:00;;;;;;;8.73;2.67;;;7.00;99.90;;;;;;5026856;28;20025;-70
2021/12/17 11:46:32;;;;;;;12.35;3.05;;;8.10;99.90;;;;;;5027455;28;20029;-72
2021/12/17 11:49:00;;;;;;;12.88;2.67;;;7.10;99.90;;;;;;5030694;28;20604;-71
2021/12/17 11:51:33;;;;;;;16.45;3.45;;;7.10;99.90;;;;;;5012167;28;20537;-71
2021/12/17 11:54:08;;;;;;;16.50;3.13;;;7.10;99.90;;;;;;5021358;28;20036;-71
2021/12/17 11:57:03;;;;;;;22.30;2.92;;;8.30;99.90;;;;;;5026753;28;20052;-71
2021/12/17 11:59:32;;;;;;;15.18;3.78;;;7.20;99.90;;;;;;5026209;28;20168;-73
2021/12/17 12:02:02;;;;;;;23.92;4.13;;;7.20;99.90;;;;;;5007433;28;20033;-77
2021/12/17 12:04:33;;;;;;;19.05;3.97;;;7.30;99.90;;;;;;5014748;28;20029;-72
2021/12/17 12:07:00;;;;;;;17.65;3.35;;;7.30;99.90;;;;;;5024197;28;20426;-78
2021/12/17 12:09:56;;;;;;;16.27;3.58;;;7.30;99.90;;;;;;5011058;28;20025;-70
2021/12/17 12:12:23;;;;;;;11.90;3.70;;;7.40;99.90;;;;;;4992171;28;20403;-70
2021/12/17 12:14:48;;;;;;;13.13;3.53;;;7.40;99.90;;;;;;5023265;28;20509;-71
2021/12/17 12:17:34;;;;;;;14.25;3.83;;;7.40;99.90;;;;;;5028228;28;20025;-74
2021/12/17 12:19:59;;;;;;;16.13;2.63;;;7.40;99.90;;;;;;5004847;28;20120;-74
2021/12/17 12:22:30;;;;;;;10.50;3.65;;;7.40;99.90;;;;;;5033858;28;20738;-70
2021/12/17 12:25:27;;;;;;;10.38;2.80;;;7.40;99.90;;;;;;5029491;28;20036;-70
2021/12/17 12:27:53;;;;;;;19.98;3.67;;;7.30;99.90;;;;;;5013191;28;20446;-76
2021/12/17 12:30:36;;;;;;;16.42;3.67;;;7.20;99.90;;;;;;5030879;28;20026;-74
2021/12/17 12:33:06;;;;;;;20.73;3.33;;;7.10;99.90;;;;;;5023265;28;20613;-74
2021/12/17 12:35:33;;;;;;;12.45;3.47;;;7.30;99.90;;;;;;4996937;28;20384;-71
2021/12/17 12:38:22;;;;;;;22.27;2.92;;;7.30;99.90;;;;;;5023125;28;20022;-72
2021/12/17 12:40:53;;;;;;;19.48;3.60;;;7.40;99.90;;;;;;5024740;28;20022;-76
2021/12/17 12:43:30;;;;;;;8.20;2.90;;;7.30;99.90;;;;;;5010776;28;20044;-74
2021/12/17 12:45:57;;;;;;;13.23;2.83;;;7.30;99.90;;;;;;5017019;28;20372;-73
2021/12/17 12:48:38;;;;;;;25.70;4.45;;;7.30;99.90;;;;;;5028602;28;20034;-74
2021/12/17 12:51:21;;;;;;;11.40;2.85;;;7.50;99.90;;;;;;5032077;28;20136;-72
2021/12/17 12:54:06;;;;;;;11.32;3.33;;;7.20;99.90;;;;;;5029682;28;20053;-72
2021/12/17 12:56:32;;;;;;;14.65;3.42;;;7.20;99.90;;;;;;5030841;28;20025;-74
2021/12/17 12:58:57;;;;;;;15.57;3.35;;;7.20;99.90;;;;;;5034669;28;20372;-72
2021/12/17 13:01:23;;;;;;;20.05;4.03;;;7.20;99.90;;;;;;5010652;28;20024;-75
2021/12/17 13:03:49;;;;;;;10.30;2.60;;;7.20;99.90;;;;;;5029419;28;20025;-73
2021/12/17 13:06:19;;;;;;;17.95;3.40;;;7.30;99.90;;;;;;5028805;28;20526;-72
2021/12/17 13:08:58;;;;;;;15.00;2.95;;;7.30;99.90;;;;;;5030846;28;20033;-71
2021/12/17 13:11:24;;;;;;;16.25;2.58;;;7.30;99.90;;;;;;5024477;28;20064;-72
2021/12/17 13:13:53;;;;;;;16.52;2.95;;;7.30;99.90;;;;;;5024002;28;20022;-73
2021/12/17 13:16:44;;;;;;;6.82;1.98;;;7.30;99.90;;;;;;5025118;28;20033;-72
2021/12/17 13:24:26;;;;;;;14.10;4.22;;;7.40;99.90;;;;;;5022147;28;20097;-71
2021/12/17 13:26:58;;;;;;;15.82;3.17;;;7.40;99.90;;;;;;5029222;28;20464;-73
2021/12/17 13:29:30;;;;;;;15.40;2.75;;;7.40;99.90;;;;;;5016418;28;20427;-70
2021/12/17 13:32:00;;;;;;;10.18;2.30;;;7.30;99.90;;;;;;5022582;28;20025;-73
2021/12/17 13:34:33;;;;;;;14.80;3.90;;;7.30;99.90;;;;;;5028593;28;20014;-71
2021/12/17 13:37:20;;;;;;;14.38;2.55;;;7.30;99.90;;;;;;5013563;28;20419;-70
2021/12/17 13:40:00;;;;;;;20.15;3.10;;;7.30;99.90;;;;;;5013948;28;20037;-74
2021/12/17 13:42:28;;;;;;;12.23;3.38;;;7.30;99.90;;;;;;4330378;28;10000840;-71
2021/12/17 13:44:56;;;;;;;22.80;2.60;;;7.30;99.90;;;;;;5026094;28;20108;-73
2021/12/17 13:47:37;;;;;;;15.73;3.05;;;7.20;99.90;;;;;;5025770;28;20048;-71
2021/12/17 13:50:09;;;;;;;24.70;2.80;;;7.30;99.90;;;;;;5025699;28;20453;-75
2021/12/17 13:55:13;;;;;;;13.15;3.00;;;7.20;99.90;;;;;;5039965;28;20083;-75
2021/12/17 13:57:41;;;;;;;17.27;3.20;;;7.20;99.90;;;;;;5022636;28;20369;-74
2021/12/17 14:00:20;;;;;;;18.85;4.40;;;7.20;99.90;;;;;;5033146;28;20402;-73
2021/12/17 14:02:47;;;;;;;9.80;2.35;;;6.90;99.90;;;;;;5031393;28;20625;-74
2021/12/17 14:07:51;;;;;;;7.90;2.40;;;7.10;99.90;;;;;;5049249;22;10002250;-74
2021/12/17 14:10:22;;;;;;;14.13;3.25;;;7.00;99.90;;;;;;5001039;28;20298;-72
2021/12/17 14:12:48;;;;;;;11.60;2.58;;;7.00;99.90;;;;;;5006148;28;20046;-72
2021/12/17 14:15:19;;;;;;;12.07;2.20;;;7.10;99.90;;;;;;4997845;28;20170;-74
2021/12/17 14:17:47;;;;;;;19.60;3.03;;;7.10;99.90;;;;;;4992313;28;20041;-73
2021/12/17 14:20:19;;;;;;;11.27;2.13;;;7.20;99.90;;;;;;5025759;22;20057;-72
2021/12/17 14:22:48;;;;;;;11.50;2.83;;;7.10;99.90;;;;;;5032466;28;20035;-72
2021/12/17 14:25:38;;;;;;;12.48;2.78;;;7.10;99.90;;;;;;5024705;28;20014;-73
2021/12/17 14:28:25;;;;;;;14.35;3.00;;;7.00;99.90;;;;;;5001399;28;20028;-70
2021/12/17 14:31:18;;;;;;;9.95;2.55;;;7.10;99.90;;;;;;5021148;28;20058;-74
2021/12/17 14:33:49;;;;;;;13.68;3.25;;;7.00;99.90;;;;;;5020643;28;20058;-74
2021/12/17 14:36:18;;;;;;;11.00;2.78;;;7.00;99.90;;;;;;5026238;28;20109;-73
2021/12/17 14:38:54;;;;;;;12.90;2.55;;;6.90;99.90;;;;;;5026775;28;20025;-72
2021/12/17 14:41:25;;;;;;;10.05;3.05;;;7.00;99.90;;;;;;5018030;28;20564;-73
2021/12/17 14:43:57;;;;;;;16.40;2.72;;;7.00;99.90;;;;;;5027192;28;20398;-73
2021/12/17 14:46:26;;;;;;;11.88;2.92;;;7.00;99.90;;;;;;5024151;28;20080;-72
2021/12/17 14:59:42;;;;;;;19.33;3.40;;;6.90;99.90;;;;;;4992629;28;20102;-71
2021/12/17 15:05:57;;;;;;;12.13;2.13;;;6.90;99.90;;;;;;5024729;28;20402;-71
2021/12/17 15:08:25;;;;;;;15.32;3.38;;;6.90;99.90;;;;;;5025565;28;20040;-70
2021/12/17 15:10:51;;;;;;;16.40;2.65;;;6.80;99.90;;;;;;5021382;28;20029;-70
2021/12/17 15:13:16;;;;;;;13.23;2.58;;;6.80;99.90;;;;;;5023271;28;20018;-71
2021/12/17 15:15:43;;;;;;;10.98;2.33;;;6.80;99.90;;;;;;5025172;28;20032;-71
2021/12/17 15:18:14;;;;;;;17.35;2.92;;;6.90;99.90;;;;;;5021936;28;20695;-70
2021/12/17 15:20:44;;;;;;;13.82;2.50;;;6.90;99.90;;;;;;5017272;28;20034;-69
2021/12/17 15:23:11;;;;;;;8.52;2.80;;;6.80;99.90;;;;;;5023971;28;20399;-72
2021/12/17 15:25:39;;;;;;;9.35;2.30;;;6.80;99.90;;;;;;5026490;28;20083;-74
2021/12/17 15:28:06;;;;;;;13.35;2.80;;;6.90;99.90;;;;;;5022701;28;20430;-74
2021/12/17 15:30:43;;;;;;;15.30;3.42;;;6.90;99.90;;;;;;5026242;28;20028;-72
2021/12/17 15:33:10;;;;;;;12.32;2.65;;;6.80;99.90;;;;;;5021317;28;20021;-71
2021/12/17 15:35:36;;;;;;;11.00;2.10;;;6.90;99.90;;;;;;5020897;28;20053;-71
2021/12/17 15:38:07;;;;;;;12.68;3.00;;;6.50;99.90;;;;;;5031616;28;20029;-72
2021/12/17 15:40:34;;;;;;;14.07;2.90;;;6.80;99.90;;;;;;5026929;28;20075;-73
2021/12/17 15:43:02;;;;;;;18.25;2.60;;;6.80;99.90;;;;;;5020680;28;20415;-72
2021/12/17 15:45:29;;;;;;;14.93;2.38;;;6.80;99.90;;;;;;5017109;28;20403;-72
2021/12/17 15:47:55;;;;;;;19.70;2.83;;;6.90;99.90;;;;;;5025296;28;20041;-73
2021/12/17 15:50:21;;;;;;;14.70;2.80;;;6.80;99.90;;;;;;5020968;28;20098;-74
2021/12/17 15:52:47;;;;;;;13.40;2.60;;;6.80;99.90;;;;;;5029104;28;20038;-73
2021/12/17 15:55:15;;;;;;;8.18;2.63;;;6.80;99.90;;;;;;5029839;28;20037;-73
2021/12/17 15:57:42;;;;;;;8.25;2.40;;;6.80;99.90;;;;;;5023328;28;20053;-74
2021/12/17 16:00:08;;;;;;;14.63;2.30;;;6.80;99.90;;;;;;5027322;28;20105;-71
2021/12/17 16:02:37;;;;;;;8.35;2.45;;;6.80;99.90;;;;;;5028753;28;20507;-73
2021/12/17 16:05:06;;;;;;;8.13;2.85;;;6.80;99.90;;;;;;5027363;28;20040;-73
2021/12/17 16:07:33;;;;;;;12.30;3.08;;;6.80;99.90;;;;;;5043838;28;20041;-75